Time;durP1;ratioP1;P1;durP2;ratioP2;P2;SDS_P1;SDS_P2;PMS_P1;PMS_P2;Temp;Humidity;BMP_temperature;BMP_pressure;BME280_temperature;BME280_humidity;BME280_pressure;Samples;Min_cycle;Max_cycle;Signal;HPM_P1;HPM_P2
2024/01/02 00:01:57;;;;;;;4.22;1.00;;;;;;;4.11;100.00;96617.22;4979204;28;20042;-62
2024/01/02 00:04:24;;;;;;;4.88;1.02;;;;;;;4.16;100.00;96601.25;4976685;28;20043;-62
2024/01/02 00:06:51;;;;;;;4.53;1.58;;;;;;;4.14;100.00;96594.50;4981810;28;20042;-63
2024/01/02 00:09:18;;;;;;;4.38;1.30;;;;;;;4.14;100.00;96586.47;4981338;28;20121;-61
2024/01/02 00:11:44;;;;;;;3.67;1.10;;;;;;;4.21;100.00;96586.34;4976485;28;20043;-62
2024/01/02 00:14:11;;;;;;;4.95;1.27;;;;;;;4.20;100.00;96582.03;4983633;28;20417;-62
2024/01/02 00:16:37;;;;;;;4.43;1.00;;;;;;;4.16;100.00;96577.13;4983670;28;20126;-62
2024/01/02 00:19:04;;;;;;;3.50;0.98;;;;;;;4.13;100.00;96569.56;4984853;28;20065;-62
2024/01/02 00:21:30;;;;;;;3.88;0.65;;;;;;;4.13;100.00;96566.06;4978931;28;20035;-62
2024/01/02 00:23:58;;;;;;;1.85;0.60;;;;;;;4.12;100.00;96561.75;4987251;28;20046;-62
2024/01/02 00:26:25;;;;;;;1.77;0.70;;;;;;;4.12;100.00;96559.06;4985963;28;20046;-62
2024/01/02 00:28:52;;;;;;;2.47;0.80;;;;;;;4.10;100.00;96555.81;4986993;28;20608;-62
2024/01/02 00:31:19;;;;;;;2.70;0.80;;;;;;;4.08;100.00;96549.84;4979577;28;20051;-62
2024/01/02 00:33:46;;;;;;;3.00;0.80;;;;;;;4.07;100.00;96549.06;4985848;28;20046;-63
2024/01/02 00:36:12;;;;;;;3.22;1.30;;;;;;;4.06;100.00;96554.63;4982402;28;20085;-63
2024/01/02 00:38:39;;;;;;;5.10;1.05;;;;;;;4.03;100.00;96547.88;4975979;28;20225;-62
2024/01/02 00:41:06;;;;;;;3.97;0.90;;;;;;;4.02;100.00;96541.69;4987427;28;20061;-63
2024/01/02 00:43:32;;;;;;;5.93;1.00;;;;;;;4.01;100.00;96529.34;4981817;28;20054;-62
2024/01/02 00:46:00;;;;;;;5.00;1.10;;;;;;;4.00;100.00;96522.38;4979074;28;20065;-62
2024/01/02 00:48:26;;;;;;;2.15;0.80;;;;;;;4.03;100.00;96513.06;4984928;28;20042;-62
2024/01/02 00:50:53;;;;;;;2.85;0.90;;;;;;;4.10;100.00;96507.59;4998754;28;20038;-62
2024/01/02 00:53:20;;;;;;;3.53;1.02;;;;;;;4.09;100.00;96514.00;4984922;28;20043;-62
2024/01/02 00:55:47;;;;;;;5.20;0.85;;;;;;;4.10;100.00;96512.94;4981488;28;20049;-62
2024/01/02 00:58:13;;;;;;;4.15;0.77;;;;;;;4.17;100.00;96513.66;4972910;28;20050;-62
2024/01/02 01:00:40;;;;;;;3.63;0.80;;;;;;;4.23;100.00;96502.00;4978834;28;20077;-63
2024/01/02 01:03:06;;;;;;;4.75;0.82;;;;;;;4.28;100.00;96493.28;4986147;28;20101;-63
2024/01/02 01:05:33;;;;;;;1.92;0.65;;;;;;;4.28;100.00;96486.03;4982973;28;20122;-62
2024/01/02 01:08:00;;;;;;;1.75;0.63;;;;;;;4.29;100.00;96479.66;4983119;28;20038;-62
2024/01/02 01:10:26;;;;;;;3.08;0.88;;;;;;;4.31;100.00;96484.75;4978238;28;20074;-61
2024/01/02 01:12:53;;;;;;;1.35;0.73;;;;;;;4.38;100.00;96481.94;4981475;28;20489;-61
2024/01/02 01:15:20;;;;;;;1.33;0.52;;;;;;;4.42;100.00;96475.91;4977717;28;20057;-62
2024/01/02 01:17:46;;;;;;;2.90;0.95;;;;;;;4.45;100.00;96471.94;4977818;28;20437;-61
2024/01/02 01:20:13;;;;;;;1.52;0.63;;;;;;;4.47;100.00;96477.88;4985572;28;20122;-62
2024/01/02 01:22:40;;;;;;;2.22;0.63;;;;;;;4.46;100.00;96480.78;4984640;28;20068;-62
2024/01/02 01:25:06;;;;;;;6.03;0.52;;;;;;;4.46;100.00;96480.78;4986094;28;20038;-62
2024/01/02 01:27:33;;;;;;;1.67;0.50;;;;;;;4.48;100.00;96476.81;4994312;28;20042;-63
2024/01/02 01:29:59;;;;;;;2.63;0.52;;;;;;;4.52;100.00;96477.16;4954801;28;20081;-62
2024/01/02 01:32:28;;;;;;;3.25;0.65;;;;;;;4.58;100.00;96462.00;4975775;28;20109;-62
2024/01/02 01:34:55;;;;;;;4.70;0.80;;;;;;;4.57;100.00;96452.34;4975002;28;20077;-61
2024/01/02 01:37:21;;;;;;;3.50;0.75;;;;;;;4.59;100.00;96443.00;4981390;28;20506;-62
2024/01/02 01:39:48;;;;;;;1.67;0.60;;;;;;;4.62;100.00;96441.72;4977713;28;20038;-62
2024/01/02 01:42:14;;;;;;;2.47;0.70;;;;;;;4.61;100.00;96446.25;4990060;28;20057;-62
2024/01/02 01:44:41;;;;;;;1.52;0.52;;;;;;;4.61;100.00;96438.22;4985007;28;20058;-62
2024/01/02 01:47:08;;;;;;;1.83;0.40;;;;;;;4.62;100.00;96439.03;4985224;28;20043;-62
2024/01/02 01:49:35;;;;;;;2.00;0.80;;;;;;;4.63;100.00;96435.28;4978901;28;20470;-62
2024/01/02 01:52:02;;;;;;;1.35;0.70;;;;;;;4.63;100.00;96427.25;4979528;28;20264;-62
2024/01/02 01:54:29;;;;;;;1.45;0.50;;;;;;;4.64;100.00;96428.91;4983374;28;20057;-62
2024/01/02 01:56:56;;;;;;;1.48;0.52;;;;;;;4.65;100.00;96417.13;4983857;28;20046;-61
2024/01/02 01:59:24;;;;;;;1.85;0.57;;;;;;;4.65;100.00;96417.13;4981738;28;20589;-62
2024/01/02 02:01:51;;;;;;;2.95;0.77;;;;;;;4.69;100.00;96415.59;4984544;28;20069;-63
2024/01/02 02:04:19;;;;;;;2.83;0.43;;;;;;;4.71;100.00;96415.34;4996118;28;20061;-62
2024/01/02 02:06:46;;;;;;;1.05;0.47;;;;;;;4.68;100.00;96405.91;4983054;28;20093;-61
2024/01/02 02:09:13;;;;;;;2.35;0.50;;;;;;;4.62;100.00;96402.31;4982703;28;20057;-62
2024/01/02 02:11:40;;;;;;;1.13;0.47;;;;;;;4.62;100.00;96399.63;4986231;28;20046;-62
2024/01/02 02:14:08;;;;;;;1.75;0.55;;;;;;;4.65;100.00;96388.41;4985238;28;20570;-63
2024/01/02 02:16:35;;;;;;;1.55;0.52;;;;;;;4.73;100.00;96387.25;4979038;28;20313;-62
2024/01/02 02:19:01;;;;;;;1.15;0.40;;;;;;;4.75;100.00;96377.09;4985505;28;20062;-63
2024/01/02 02:21:29;;;;;;;1.15;0.45;;;;;;;4.84;100.00;96374.84;4980979;28;20449;-62
2024/01/02 02:23:56;;;;;;;1.25;0.30;;;;;;;4.93;100.00;96369.88;4988679;28;20510;-62
2024/01/02 02:26:22;;;;;;;0.68;0.30;;;;;;;4.95;100.00;96359.75;4979574;28;20073;-63
2024/01/02 02:28:49;;;;;;;0.75;0.30;;;;;;;4.97;100.00;96352.25;4978662;28;20451;-62
2024/01/02 02:31:17;;;;;;;0.82;0.40;;;;;;;5.08;100.00;96348.72;4971849;28;20038;-63
2024/01/02 02:33:44;;;;;;;1.90;0.60;;;;;;;5.11;100.00;96333.16;4981785;28;22454;-63
2024/01/02 02:36:11;;;;;;;0.55;0.25;;;;;;;5.12;100.00;96330.25;4980584;28;20513;-62
2024/01/02 02:38:37;;;;;;;1.45;0.40;;;;;;;5.13;100.00;96309.59;4980769;28;20049;-62
2024/01/02 02:41:04;;;;;;;0.65;0.30;;;;;;;5.17;100.00;96308.06;4986655;28;20046;-63
2024/01/02 02:43:31;;;;;;;0.38;0.30;;;;;;;5.19;100.00;96311.31;4982239;28;20587;-63
2024/01/02 02:45:57;;;;;;;2.15;0.35;;;;;;;5.23;100.00;96301.72;4983370;28;20057;-62
2024/01/02 02:48:24;;;;;;;0.63;0.20;;;;;;;5.26;100.00;96298.53;4972713;28;20053;-63
2024/01/02 02:50:51;;;;;;;1.65;0.50;;;;;;;5.29;100.00;96299.91;4975779;28;20147;-62
2024/01/02 02:53:18;;;;;;;2.28;0.30;;;;;;;5.33;100.00;96299.19;4983921;28;20125;-63
2024/01/02 02:55:45;;;;;;;0.30;0.20;;;;;;;5.40;100.00;96301.72;4987810;28;20046;-63
2024/01/02 02:58:12;;;;;;;2.65;0.50;;;;;;;5.47;100.00;96288.13;4977668;28;20217;-62
2024/01/02 03:00:39;;;;;;;0.43;0.30;;;;;;;5.47;100.00;96294.31;4980929;28;20049;-62
2024/01/02 03:03:06;;;;;;;1.95;0.32;;;;;;;5.50;100.00;96290.31;4984838;28;20061;-61
2024/01/02 03:05:32;;;;;;;2.13;0.30;;;;;;;5.50;100.00;96279.59;4970358;28;20047;-63
2024/01/02 03:07:59;;;;;;;0.70;0.30;;;;;;;5.54;100.00;96258.41;4984071;28;20038;-62
2024/01/02 03:10:25;;;;;;;1.17;0.57;;;;;;;5.52;100.00;96272.09;4980568;28;20137;-63
2024/01/02 03:12:52;;;;;;;0.57;0.30;;;;;;;5.45;100.00;96258.84;4982497;28;20046;-61
2024/01/02 03:15:19;;;;;;;2.00;0.40;;;;;;;5.42;100.00;96259.31;4982376;28;20042;-62
2024/01/02 03:17:46;;;;;;;0.63;0.20;;;;;;;5.46;100.00;96244.34;4981206;28;20445;-63
2024/01/02 03:20:13;;;;;;;0.77;0.30;;;;;;;5.43;100.00;96238.66;4983246;28;20046;-61
2024/01/02 03:22:39;;;;;;;0.47;0.30;;;;;;;5.36;100.00;96232.66;4983661;28;20402;-61
2024/01/02 03:25:07;;;;;;;0.60;0.30;;;;;;;5.33;100.00;96226.72;4981906;28;20042;-62
2024/01/02 03:27:33;;;;;;;1.15;0.35;;;;;;;5.34;100.00;96214.91;4979105;28;20074;-61
2024/01/02 03:30:00;;;;;;;1.45;0.40;;;;;;;5.31;100.00;96204.69;4982099;28;20042;-62
2024/01/02 03:32:27;;;;;;;0.32;0.20;;;;;;;5.21;100.00;96212.59;4982720;28;20038;-62
2024/01/02 03:34:54;;;;;;;0.57;0.22;;;;;;;5.13;100.00;96200.41;4979985;28;20038;-62
2024/01/02 03:37:21;;;;;;;0.82;0.35;;;;;;;5.05;100.00;96196.25;4981251;28;20522;-62
2024/01/02 03:39:47;;;;;;;0.63;0.30;;;;;;;5.01;100.00;96192.44;4978631;28;20038;-62
2024/01/02 03:42:14;;;;;;;1.17;0.57;;;;;;;4.92;100.00;96189.38;4983088;28;20053;-62
2024/01/02 03:44:40;;;;;;;1.02;0.40;;;;;;;4.79;100.00;96189.69;4985187;28;20043;-61
2024/01/02 03:47:07;;;;;;;1.58;0.52;;;;;;;4.70;100.00;96194.66;4981849;28;20050;-62
2024/01/02 03:49:33;;;;;;;0.80;0.40;;;;;;;4.64;100.00;96179.53;4985666;28;20572;-62
2024/01/02 03:52:00;;;;;;;5.10;0.95;;;;;;;4.60;100.00;96178.41;4986765;28;20517;-62
2024/01/02 03:54:26;;;;;;;3.38;0.77;;;;;;;4.57;100.00;96177.00;4986527;28;20051;-61
2024/01/02 03:56:53;;;;;;;1.05;0.50;;;;;;;4.59;100.00;96166.84;4987574;28;20046;-61
2024/01/02 03:59:20;;;;;;;1.65;0.68;;;;;;;4.52;100.00;96158.97;4980726;28;20054;-62
2024/01/02 04:01:46;;;;;;;3.65;0.73;;;;;;;4.45;100.00;96150.25;4980524;28;20054;-63
2024/01/02 04:04:13;;;;;;;1.02;0.55;;;;;;;4.43;100.00;96147.03;4981801;28;20043;-62
2024/01/02 04:06:39;;;;;;;2.95;1.10;;;;;;;4.42;100.00;96148.06;4980924;28;20045;-62
2024/01/02 04:09:06;;;;;;;0.52;0.30;;;;;;;4.49;100.00;96147.94;4982817;28;20042;-62
2024/01/02 04:11:32;;;;;;;4.95;0.60;;;;;;;4.50;100.00;96153.03;4986342;28;20054;-61
2024/01/02 04:13:59;;;;;;;1.17;0.32;;;;;;;4.51;100.00;96146.63;4986561;28;20039;-63
2024/01/02 04:16:25;;;;;;;1.13;0.50;;;;;;;4.48;100.00;96128.34;4978558;28;20057;-63
2024/01/02 04:18:52;;;;;;;0.20;0.20;;;;;;;4.50;100.00;96133.47;4975066;28;20042;-63
2024/01/02 04:21:19;;;;;;;1.80;0.40;;;;;;;4.49;100.00;96121.13;4981717;28;20461;-62
2024/01/02 04:23:45;;;;;;;0.30;0.30;;;;;;;4.48;100.00;96117.63;4980371;28;20043;-64
2024/01/02 04:26:12;;;;;;;0.85;0.25;;;;;;;4.44;100.00;96108.44;4981331;28;20061;-62
2024/01/02 04:28:38;;;;;;;0.35;0.28;;;;;;;4.42;100.00;96094.47;4984961;28;20038;-62
2024/01/02 04:31:06;;;;;;;0.47;0.22;;;;;;;4.42;100.00;96084.56;4981726;28;20042;-62
2024/01/02 04:33:33;;;;;;;0.20;0.20;;;;;;;4.42;100.00;96086.41;4983451;28;20069;-63
2024/01/02 04:35:59;;;;;;;2.83;0.20;;;;;;;4.43;100.00;96051.34;4982668;28;20038;-63
2024/01/02 04:38:26;;;;;;;0.38;0.35;;;;;;;4.47;100.00;96067.75;4976874;28;20537;-63
2024/01/02 04:40:53;;;;;;;1.02;0.30;;;;;;;4.48;100.00;96049.78;4979315;28;20564;-62
2024/01/02 04:43:21;;;;;;;1.13;0.40;;;;;;;4.48;100.00;96047.94;4985516;28;20042;-61
2024/01/02 04:45:48;;;;;;;0.70;0.32;;;;;;;4.47;100.00;96046.31;4979232;28;20049;-61
2024/01/02 04:48:14;;;;;;;0.75;0.20;;;;;;;4.52;100.00;96061.66;4983616;28;20069;-61
2024/01/02 04:50:41;;;;;;;0.47;0.20;;;;;;;4.53;100.00;96055.22;4974111;28;20117;-63
2024/01/02 04:53:07;;;;;;;0.82;0.30;;;;;;;4.54;100.00;96035.41;4985106;28;20122;-61
2024/01/02 04:55:34;;;;;;;0.50;0.25;;;;;;;4.55;100.00;96034.34;4982107;28;20050;-62
2024/01/02 04:58:02;;;;;;;0.70;0.40;;;;;;;4.55;100.00;96040.53;4981172;28;20130;-62
2024/01/02 05:00:29;;;;;;;0.25;0.20;;;;;;;4.59;100.00;96034.66;4985355;28;20064;-62
2024/01/02 05:02:55;;;;;;;0.38;0.20;;;;;;;4.61;100.00;96032.56;4980263;28;20290;-62
2024/01/02 05:05:22;;;;;;;0.28;0.28;;;;;;;4.61;100.00;96022.63;4983161;28;20101;-61
2024/01/02 05:07:49;;;;;;;0.15;0.15;;;;;;;4.62;100.00;96012.72;4983035;28;20502;-62
2024/01/02 05:10:15;;;;;;;0.35;0.35;;;;;;;4.63;100.00;96017.03;4984369;28;20046;-62
2024/01/02 05:12:42;;;;;;;0.20;0.20;;;;;;;4.65;100.00;96006.88;4984279;28;20457;-62
2024/01/02 05:15:08;;;;;;;0.52;0.30;;;;;;;4.66;100.00;95984.38;4984995;28;20137;-62
2024/01/02 05:17:35;;;;;;;1.02;0.30;;;;;;;4.66;100.00;95998.59;4983094;28;20046;-61
2024/01/02 05:20:03;;;;;;;1.45;0.32;;;;;;;4.72;100.00;95999.44;4985559;28;20042;-62
2024/01/02 05:22:29;;;;;;;0.52;0.32;;;;;;;4.78;100.00;95997.66;4979284;28;20046;-62
2024/01/02 05:24:56;;;;;;;0.88;0.40;;;;;;;4.76;100.00;95987.16;4985815;28;20038;-62
2024/01/02 05:27:22;;;;;;;0.60;0.20;;;;;;;4.75;100.00;95992.81;4973602;28;20046;-62
2024/01/02 05:29:49;;;;;;;0.17;0.17;;;;;;;4.76;100.00;95984.47;4985584;28;20506;-62
2024/01/02 05:32:15;;;;;;;0.32;0.20;;;;;;;4.79;100.00;95988.56;4983262;28;21308;-64
2024/01/02 05:34:42;;;;;;;1.05;0.50;;;;;;;4.84;100.00;95983.25;4982899;28;20038;-65
2024/01/02 05:37:08;;;;;;;0.95;0.40;;;;;;;4.86;100.00;95981.13;4981043;28;20481;-64
2024/01/02 05:39:35;;;;;;;2.28;0.70;;;;;;;4.86;100.00;95978.44;4978073;28;20069;-64
2024/01/02 05:42:02;;;;;;;0.65;0.10;;;;;;;4.90;100.00;95976.88;4981346;28;20043;-64
2024/01/02 05:44:28;;;;;;;0.43;0.40;;;;;;;4.94;100.00;95979.91;4983253;28;20081;-64
2024/01/02 05:46:55;;;;;;;0.10;0.10;;;;;;;4.95;100.00;95965.41;4977607;28;20046;-64
2024/01/02 05:49:22;;;;;;;0.80;0.10;;;;;;;4.95;100.00;95960.84;4984465;28;20670;-64
2024/01/02 05:51:48;;;;;;;0.55;0.40;;;;;;;4.95;100.00;95965.41;4981571;28;20045;-64
2024/01/02 05:54:15;;;;;;;0.20;0.20;;;;;;;4.88;100.00;95957.56;4984309;28;20508;-64
2024/01/02 05:56:41;;;;;;;0.73;0.20;;;;;;;4.89;100.00;95961.03;4983729;28;20046;-64
2024/01/02 05:59:08;;;;;;;0.82;0.20;;;;;;;4.91;100.00;95949.00;4985504;28;20214;-65
2024/01/02 06:01:35;;;;;;;0.80;0.20;;;;;;;4.95;100.00;95954.69;4984319;28;20140;-64
2024/01/02 06:04:02;;;;;;;1.00;0.17;;;;;;;5.02;100.00;95946.44;4982329;28;20038;-64
2024/01/02 06:06:29;;;;;;;0.50;0.25;;;;;;;5.01;100.00;95956.34;4984016;28;20050;-65
2024/01/02 06:08:55;;;;;;;0.30;0.20;;;;;;;4.99;100.00;95936.22;4978012;28;20561;-64
2024/01/02 06:11:22;;;;;;;0.32;0.22;;;;;;;4.98;100.00;95942.66;4983030;28;20070;-64
2024/01/02 06:13:48;;;;;;;0.40;0.20;;;;;;;5.04;100.00;95928.22;4979004;28;20109;-63
2024/01/02 06:16:15;;;;;;;0.20;0.20;;;;;;;4.99;100.00;95930.84;4982570;28;20054;-65
2024/01/02 06:18:41;;;;;;;0.10;0.10;;;;;;;5.05;100.00;95945.94;4984149;28;20046;-65
2024/01/02 06:21:08;;;;;;;0.13;0.10;;;;;;;5.08;100.00;95940.06;4983011;28;20479;-64
2024/01/02 06:23:35;;;;;;;0.82;0.30;;;;;;;5.13;100.00;95942.00;4980383;28;20414;-64
2024/01/02 06:26:15;;;;;;;1.02;0.30;;;;;;;5.15;100.00;95929.13;4984533;28;20604;-64
2024/01/02 06:28:42;;;;;;;0.47;0.20;;;;;;;5.16;100.00;95922.72;4981449;28;20528;-65
2024/01/02 06:31:08;;;;;;;2.10;0.28;;;;;;;5.18;100.00;95904.47;4981294;28;20057;-64
2024/01/02 06:33:35;;;;;;;1.48;0.38;;;;;;;5.18;100.00;95909.84;4982755;28;20104;-64
2024/01/02 06:36:02;;;;;;;0.22;0.22;;;;;;;5.20;100.00;95923.84;4982959;28;20348;-64
2024/01/02 06:38:28;;;;;;;0.30;0.20;;;;;;;5.21;100.00;95899.41;4983529;28;20070;-64
2024/01/02 06:40:55;;;;;;;0.20;0.20;;;;;;;5.29;100.00;95898.16;4975616;28;20121;-64
2024/01/02 06:43:22;;;;;;;0.50;0.40;;;;;;;5.34;100.00;95892.81;4974515;28;20047;-64
2024/01/02 06:45:48;;;;;;;0.45;0.30;;;;;;;5.39;100.00;95905.50;4984168;28;20536;-65
2024/01/02 06:48:15;;;;;;;0.70;0.30;;;;;;;5.41;100.00;95897.97;4983430;28;20132;-65
2024/01/02 06:50:41;;;;;;;1.48;0.35;;;;;;;5.44;100.00;95897.47;4975681;28;20073;-64
2024/01/02 06:53:08;;;;;;;3.17;0.50;;;;;;;5.47;100.00;95896.16;4983223;28;20038;-64
2024/01/02 06:55:35;;;;;;;0.30;0.20;;;;;;;5.54;100.00;95896.75;4977759;28;20054;-64
2024/01/02 06:58:01;;;;;;;2.40;0.20;;;;;;;5.58;100.00;95889.81;4980514;28;20043;-65
2024/01/02 07:00:28;;;;;;;1.08;0.30;;;;;;;5.62;100.00;95875.84;4978876;28;20042;-65
2024/01/02 07:02:55;;;;;;;0.38;0.28;;;;;;;5.71;100.00;95885.03;4978922;28;20762;-64
2024/01/02 07:05:23;;;;;;;0.10;0.10;;;;;;;5.79;100.00;95867.66;4971255;28;20528;-64
2024/01/02 07:07:50;;;;;;;0.25;0.22;;;;;;;5.80;100.00;95888.06;4978649;28;20057;-64
2024/01/02 07:10:17;;;;;;;0.55;0.20;;;;;;;5.82;100.00;95875.22;4979882;28;20038;-64
2024/01/02 07:12:45;;;;;;;0.65;0.17;;;;;;;5.88;100.00;95884.09;4979633;28;20145;-64
2024/01/02 07:15:11;;;;;;;0.43;0.20;;;;;;;5.91;100.00;95883.59;4977889;28;20100;-64
2024/01/02 07:17:40;;;;;;;0.38;0.17;;;;;;;5.94;100.00;95875.00;4971720;28;20050;-64
2024/01/02 07:20:07;;;;;;;0.98;0.30;;;;;;;5.97;100.00;95877.19;4983725;28;20561;-64
2024/01/02 07:22:34;;;;;;;0.20;0.20;;;;;;;5.98;100.00;95879.59;4982004;28;20101;-62
2024/01/02 07:25:00;;;;;;;1.23;0.20;;;;;;;5.96;100.00;95895.19;4975525;28;20438;-61
2024/01/02 07:27:26;;;;;;;1.55;0.40;;;;;;;6.00;100.00;95882.03;4982628;28;20072;-62
2024/01/02 07:29:53;;;;;;;0.10;0.10;;;;;;;6.01;100.00;95897.06;4969288;28;20052;-62
2024/01/02 07:32:20;;;;;;;0.10;0.10;;;;;;;6.05;100.00;95889.34;4982919;28;20050;-62
2024/01/02 07:34:46;;;;;;;0.10;0.10;;;;;;;6.09;100.00;95893.94;4983528;28;20089;-62
2024/01/02 07:37:14;;;;;;;0.20;0.20;;;;;;;6.10;100.00;95902.81;4979779;28;20462;-60
2024/01/02 07:39:43;;;;;;;0.28;0.20;;;;;;;6.19;100.00;95911.22;4980427;28;20091;-64
2024/01/02 07:42:10;;;;;;;0.20;0.20;;;;;;;6.23;100.00;95912.31;4975605;28;20105;-64
2024/01/02 07:44:36;;;;;;;0.20;0.20;;;;;;;6.26;100.00;95897.53;4982176;28;20121;-64
2024/01/02 07:47:03;;;;;;;0.93;0.22;;;;;;;6.26;100.00;95905.59;4983616;28;20113;-64
2024/01/02 07:49:30;;;;;;;0.10;0.10;;;;;;;6.27;100.00;95905.34;4976635;28;20074;-64
2024/01/02 07:51:56;;;;;;;1.10;0.20;;;;;;;6.24;100.00;95903.97;4979289;28;20038;-64
2024/01/02 07:54:23;;;;;;;0.73;0.17;;;;;;;6.29;100.00;95908.56;4978517;28;20048;-52
2024/01/02 07:56:49;;;;;;;0.52;0.30;;;;;;;6.28;100.00;95901.59;4973698;28;20124;-52
2024/01/02 07:59:19;;;;;;;0.90;0.15;;;;;;;6.29;100.00;95902.38;4978102;28;20042;-51
2024/01/02 08:01:48;;;;;;;0.25;0.15;;;;;;;6.29;100.00;95900.50;4975041;28;20138;-54
2024/01/02 08:04:14;;;;;;;0.50;0.20;;;;;;;6.32;100.00;95902.69;4973269;28;20061;-52
2024/01/02 08:06:41;;;;;;;0.45;0.20;;;;;;;6.41;100.00;95900.28;4978497;28;20057;-56
2024/01/02 08:09:08;;;;;;;0.25;0.20;;;;;;;6.39;100.00;95907.81;4975636;28;20811;-54
2024/01/02 08:11:34;;;;;;;0.20;0.13;;;;;;;6.36;100.00;95897.56;4975596;28;20050;-53
2024/01/02 08:14:01;;;;;;;1.30;0.50;;;;;;;6.38;100.00;95896.25;4981825;28;20065;-62
2024/01/02 08:16:27;;;;;;;0.40;0.40;;;;;;;6.47;100.00;95901.13;4979824;28;20074;-60
2024/01/02 08:18:54;;;;;;;0.47;0.20;;;;;;;6.43;100.00;95892.78;4981765;28;20057;-61
2024/01/02 08:21:20;;;;;;;0.47;0.20;;;;;;;6.38;100.00;95908.91;4978747;28;20088;-61
2024/01/02 08:23:47;;;;;;;0.40;0.20;;;;;;;6.36;100.00;95913.72;4973924;28;20676;-61
2024/01/02 08:26:14;;;;;;;0.10;0.10;;;;;;;6.38;100.00;95912.38;4973175;28;20046;-61
2024/01/02 08:28:41;;;;;;;0.68;0.20;;;;;;;6.48;100.00;95905.41;4978026;28;20046;-61
2024/01/02 08:31:08;;;;;;;0.55;0.20;;;;;;;6.54;100.00;95885.56;4979141;28;20053;-63
2024/01/02 08:33:34;;;;;;;0.10;0.10;;;;;;;6.63;100.00;95910.88;4980894;28;20077;-63
2024/01/02 08:36:01;;;;;;;0.38;0.20;;;;;;;6.67;100.00;95913.84;4981956;28;20046;-63
2024/01/02 08:38:28;;;;;;;0.57;0.20;;;;;;;6.68;100.00;95899.34;4981157;28;20047;-63
2024/01/02 08:40:54;;;;;;;0.13;0.13;;;;;;;6.63;100.00;95908.19;4982537;28;20121;-63
2024/01/02 08:43:21;;;;;;;0.45;0.20;;;;;;;6.71;100.00;95898.00;4981011;28;20114;-65
2024/01/02 08:45:47;;;;;;;0.55;0.17;;;;;;;6.69;100.00;95890.19;4980252;28;20043;-63
2024/01/02 08:48:14;;;;;;;0.20;0.10;;;;;;;6.66;100.00;95889.94;4985320;28;20042;-63
2024/01/02 08:50:42;;;;;;;0.45;0.30;;;;;;;6.72;100.00;95892.38;4978525;28;20245;-64
2024/01/02 08:53:11;;;;;;;0.55;0.30;;;;;;;6.66;100.00;95904.16;4976895;28;20038;-64
2024/01/02 08:55:38;;;;;;;0.95;0.40;;;;;;;6.72;100.00;95892.38;4979742;28;20054;-63
2024/01/02 08:58:05;;;;;;;0.30;0.28;;;;;;;6.80;100.00;95895.59;4978159;28;20046;-63
2024/01/02 09:00:32;;;;;;;0.20;0.20;;;;;;;6.85;100.00;95901.00;4977582;28;20074;-63
2024/01/02 09:03:02;;;;;;;0.38;0.20;;;;;;;6.96;100.00;95883.03;4976698;28;20047;-64
2024/01/02 09:05:29;;;;;;;0.20;0.20;;;;;;;6.92;100.00;95906.16;4978142;28;20053;-63
2024/01/02 09:07:56;;;;;;;0.95;0.30;;;;;;;6.92;100.00;95922.31;4975663;28;20502;-63
2024/01/02 09:10:22;;;;;;;0.73;0.32;;;;;;;6.91;100.00;95918.78;4975489;28;20254;-64
2024/01/02 09:12:49;;;;;;;0.35;0.20;;;;;;;7.00;100.00;95919.88;4972967;28;20050;-63
2024/01/02 09:15:17;;;;;;;0.40;0.30;;;;;;;7.03;100.00;95897.00;4978289;28;20105;-64
2024/01/02 09:17:45;;;;;;;0.10;0.10;;;;;;;7.06;100.00;95911.81;4984068;28;20583;-63
2024/01/02 09:20:12;;;;;;;0.57;0.30;;;;;;;7.14;100.00;95932.84;4984179;28;20693;-63
2024/01/02 09:22:38;;;;;;;0.20;0.20;;;;;;;7.20;100.00;95923.72;4982707;28;20264;-63
2024/01/02 09:25:05;;;;;;;1.00;0.35;;;;;;;7.24;100.00;95921.28;4979086;28;20048;-63
2024/01/02 09:27:35;;;;;;;0.55;0.20;;;;;;;7.22;100.00;95931.53;4982784;28;20050;-63
2024/01/02 09:30:04;;;;;;;0.70;0.30;;;;;;;7.22;100.00;95931.53;4980264;28;20053;-63
2024/01/02 09:32:32;;;;;;;0.93;0.32;;;;;;;7.21;100.00;95919.13;4982453;28;20046;-63
2024/01/02 09:34:59;;;;;;;1.40;0.28;;;;;;;7.24;100.00;95945.53;4977099;28;20042;-63
2024/01/02 09:37:27;;;;;;;0.47;0.30;;;;;;;7.30;100.00;95941.78;4981683;28;20073;-62
2024/01/02 09:39:53;;;;;;;0.55;0.22;;;;;;;7.36;100.00;95937.19;4980582;28;21371;-63
2024/01/02 09:42:35;;;;;;;0.43;0.20;;;;;;;7.32;100.00;95931.53;4975173;28;20145;-63
2024/01/02 09:45:07;;;;;;;0.93;0.28;;;;;;;7.39;100.00;95950.13;4976918;28;20042;-63
2024/01/02 09:47:52;;;;;;;0.82;0.57;;;;;;;7.39;100.00;95947.44;4977061;28;20537;-63
2024/01/02 09:50:25;;;;;;;0.10;0.10;;;;;;;7.47;100.00;95938.84;4978095;28;20074;-63
2024/01/02 09:53:00;;;;;;;0.38;0.30;;;;;;;7.56;100.00;95939.13;4976938;28;20050;-63
2024/01/02 09:55:52;;;;;;;0.20;0.20;;;;;;;7.54;100.00;95950.16;4983342;28;20116;-63
2024/01/02 09:58:58;;;;;;;0.40;0.20;;;;;;;7.64;100.00;95962.84;4981657;28;20506;-63
2024/01/02 10:01:37;;;;;;;0.52;0.20;;;;;;;7.66;100.00;95949.06;4974421;28;20056;-63
2024/01/02 10:04:30;;;;;;;0.40;0.20;;;;;;;7.68;100.00;95944.25;4972703;28;20078;-63
2024/01/02 10:07:25;;;;;;;0.25;0.20;;;;;;;7.84;100.00;95942.34;4980464;28;20057;-64
2024/01/02 10:10:04;;;;;;;0.60;0.30;;;;;;;7.81;100.00;95953.66;4974414;28;20049;-63
2024/01/02 10:12:40;;;;;;;1.83;0.43;;;;;;;7.77;100.00;95948.03;4975647;28;20053;-64
2024/01/02 10:15:15;;;;;;;1.35;0.43;;;;;;;7.90;100.00;95933.22;4977719;28;20046;-63
2024/01/02 10:18:01;;;;;;;0.57;0.28;;;;;;;7.88;100.00;95939.91;4982030;28;20501;-63
2024/01/02 10:21:03;;;;;;;1.08;0.35;;;;;;;7.81;100.00;95932.94;4983000;28;20078;-64
2024/01/02 10:23:47;;;;;;;0.88;0.25;;;;;;;7.83;100.00;95912.97;4979180;28;20046;-63
2024/01/02 10:26:15;;;;;;;0.20;0.20;;;;;;;7.94;100.00;95922.69;4980374;28;20044;-63
2024/01/02 10:28:43;;;;;;;0.15;0.15;;;;;;;7.87;100.00;95912.19;4978636;28;20451;-63
2024/01/02 10:31:25;;;;;;;0.28;0.17;;;;;;;7.88;100.00;95918.34;4975532;28;20061;-64
2024/01/02 10:34:19;;;;;;;0.25;0.20;;;;;;;7.84;100.00;95906.50;4977007;28;20034;-63
2024/01/02 10:36:57;;;;;;;0.20;0.10;;;;;;;7.97;100.00;95905.97;4976028;28;20041;-64
2024/01/02 10:39:35;;;;;;;0.20;0.20;;;;;;;7.90;100.00;95897.34;4980157;28;20133;-63
2024/01/02 10:42:15;;;;;;;0.98;0.40;;;;;;;7.88;100.00;95908.41;4976476;28;20101;-64
2024/01/02 10:45:20;;;;;;;1.25;0.40;;;;;;;7.90;100.00;95891.97;4972197;28;20047;-64
2024/01/02 10:48:11;;;;;;;0.57;0.30;;;;;;;8.01;100.00;95900.84;4967757;28;20056;-61
2024/01/02 10:51:20;;;;;;;2.40;0.73;;;;;;;8.12;100.00;95899.75;4973428;28;20050;-61
2024/01/02 10:54:08;;;;;;;0.13;0.10;;;;;;;8.09;100.00;95886.00;4973735;28;20061;-61
2024/01/02 10:56:45;;;;;;;0.55;0.20;;;;;;;8.16;100.00;95887.34;4975063;28;20078;-61
2024/01/02 10:59:23;;;;;;;1.00;0.25;;;;;;;8.15;100.00;95887.63;4976176;28;20130;-61
2024/01/02 11:01:59;;;;;;;1.23;0.40;;;;;;;8.27;100.00;95876.53;4972320;28;20038;-60
2024/01/02 11:04:36;;;;;;;0.35;0.20;;;;;;;8.27;100.00;95881.91;4979590;28;20792;-62
2024/01/02 11:07:08;;;;;;;0.20;0.10;;;;;;;8.29;100.00;95885.16;4973908;28;20046;-64
2024/01/02 11:09:43;;;;;;;0.35;0.30;;;;;;;8.25;100.00;95879.50;4979389;28;20069;-63
2024/01/02 11:12:12;;;;;;;0.10;0.10;;;;;;;8.23;100.00;95883.53;4975424;28;20049;-63
2024/01/02 11:14:43;;;;;;;0.70;0.20;;;;;;;8.32;100.00;95861.16;4982909;28;20182;-63
2024/01/02 11:17:15;;;;;;;0.95;0.45;;;;;;;8.29;100.00;95861.69;4978652;28;20464;-63
2024/01/02 11:19:48;;;;;;;;;;;;;;;8.44;100.00;95854.66;4976591;28;20093;-63
2024/01/02 11:22:20;;;;;;;0.13;0.10;;;;;;;8.35;100.00;95840.91;4978220;28;19922;-64
2024/01/02 11:24:53;;;;;;;0.20;0.20;;;;;;;8.33;100.00;95837.66;4977524;28;20030;-63
2024/01/02 11:27:21;;;;;;;0.30;0.10;;;;;;;8.37;100.00;95841.44;4980981;28;20202;-62
2024/01/02 11:29:49;;;;;;;0.25;0.20;;;;;;;8.54;100.00;95833.03;4978839;28;20049;-62
2024/01/02 11:32:22;;;;;;;1.00;0.20;;;;;;;8.51;100.00;95832.75;4981608;28;20047;-63
2024/01/02 11:34:59;;;;;;;0.47;0.17;;;;;;;8.50;100.00;95837.34;4971601;28;20049;-63
2024/01/02 11:37:40;;;;;;;0.17;0.17;;;;;;;8.50;100.00;95821.16;4977875;28;20885;-64
2024/01/02 11:40:21;;;;;;;0.10;0.10;;;;;;;8.58;100.00;95812.50;4981703;28;20043;-62
2024/01/02 11:43:17;;;;;;;0.13;0.13;;;;;;;8.51;100.00;95813.88;4983488;28;20093;-63